Time;durP1;ratioP1;P1;durP2;ratioP2;P2;SDS_P1;SDS_P2;PMS_P1;PMS_P2;Temp;Humidity;BMP_temperature;BMP_pressure;BME280_temperature;BME280_humidity;BME280_pressure;Samples;Min_cycle;Max_cycle;Signal;HPM_P1;HPM_P2
2021/11/17 02:28:23;;;;;;;58.40;20.35;;;;;;;6.24;99.61;102046.75;5072542;28;20079;-67
2021/11/17 02:31:06;;;;;;;62.17;21.42;;;;;;;6.25;99.58;102037.97;4971736;28;20058;-67
2021/11/17 02:33:52;;;;;;;59.33;21.55;;;;;;;6.26;99.42;102039.72;4971728;28;20035;-67
2021/11/17 02:36:42;;;;;;;63.97;22.08;;;;;;;6.26;100.00;102033.59;4973469;28;20127;-67
2021/11/17 02:39:29;;;;;;;61.72;21.90;;;;;;;6.28;99.70;102037.97;4972896;28;20069;-67
2021/11/17 02:42:20;;;;;;;59.28;21.45;;;;;;;6.27;100.00;102041.47;4976500;28;20050;-67
2021/11/17 02:45:23;;;;;;;58.15;21.33;;;;;;;6.29;100.00;102049.34;4975587;28;20034;-68
2021/11/17 02:48:04;;;;;;;54.30;20.92;;;;;;;6.31;100.00;102042.31;4976567;28;20046;-67
2021/11/17 02:50:54;;;;;;;63.63;22.15;;;;;;;6.31;100.00;102040.56;4974966;28;20034;-67
2021/11/17 02:53:25;;;;;;;57.58;21.42;;;;;;;6.31;100.00;102044.94;4975329;28;20086;-67
2021/11/17 02:55:59;;;;;;;57.85;21.42;;;;;;;6.34;100.00;102042.28;4975006;28;20071;-67
2021/11/17 02:58:37;;;;;;;58.00;20.65;;;;;;;6.36;99.99;102037.91;4969430;28;20663;-67
2021/11/17 03:01:40;;;;;;;60.00;22.20;;;;;;;6.32;99.86;102036.19;4988757;28;20111;-67
2021/11/17 03:04:33;;;;;;;56.95;21.90;;;;;;;6.37;100.00;102031.75;4995439;28;20076;-67
2021/11/17 03:07:10;;;;;;;61.30;21.48;;;;;;;6.35;100.00;102042.25;4995336;28;20092;-67
2021/11/17 03:09:38;;;;;;;58.40;22.10;;;;;;;6.32;100.00;102023.88;4994366;28;20394;-67
2021/11/17 03:12:04;;;;;;;53.80;21.02;;;;;;;6.35;100.00;102015.94;4994405;28;20564;-67
2021/11/17 03:14:35;;;;;;;57.13;21.45;;;;;;;6.37;99.83;102032.63;4995494;28;20121;-67
2021/11/17 03:17:40;;;;;;;61.03;22.17;;;;;;;6.37;100.00;102008.06;4994590;28;20035;-67
2021/11/17 03:20:17;;;;;;;64.95;22.48;;;;;;;6.35;100.00;102023.84;4974880;28;20048;-67
2021/11/17 03:22:57;;;;;;;57.25;21.88;;;;;;;6.36;100.00;102016.84;4974642;28;20035;-67
2021/11/17 03:25:50;;;;;;;62.80;22.65;;;;;;;6.35;100.00;102026.47;4990189;28;20034;-67
2021/11/17 03:28:38;;;;;;;54.67;21.55;;;;;;;6.39;100.00;102014.19;4995314;28;20041;-67
2021/11/17 03:31:22;;;;;;;59.42;22.30;;;;;;;6.37;100.00;102003.66;4988690;28;20050;-67
2021/11/17 03:33:50;;;;;;;55.97;21.30;;;;;;;6.37;100.00;102000.19;4994213;28;20038;-67
2021/11/17 03:36:27;;;;;;;55.70;20.23;;;;;;;6.36;100.00;102001.91;4994981;28;20105;-67
2021/11/17 03:39:27;;;;;;;54.47;20.63;;;;;;;6.34;100.00;101989.66;4994661;28;20026;-68
2021/11/17 03:42:02;;;;;;;61.70;20.40;;;;;;;6.30;100.00;101988.81;5055288;28;20020;-67
2021/11/17 03:44:56;;;;;;;61.60;21.45;;;;;;;6.29;100.00;101988.84;5055292;28;20017;-66
2021/11/17 03:47:30;;;;;;;55.60;19.80;;;;;;;6.31;100.00;101987.06;5093112;28;20024;-67
2021/11/17 03:50:15;;;;;;;60.97;20.98;;;;;;;6.33;100.00;101980.91;5093301;28;20024;-68
2021/11/17 03:53:03;;;;;;;59.20;21.15;;;;;;;6.36;100.00;101980.88;5094897;28;20646;-67
2021/11/17 03:55:53;;;;;;;56.90;20.08;;;;;;;6.35;100.00;101981.75;4993664;28;20616;-67
2021/11/17 03:58:33;;;;;;;60.15;20.45;;;;;;;6.37;100.00;101987.88;4977593;28;20034;-67
2021/11/17 04:01:04;;;;;;;54.45;20.40;;;;;;;6.32;100.00;101975.66;4975042;28;20093;-67
2021/11/17 04:03:43;;;;;;;55.67;19.93;;;;;;;6.30;100.00;101977.44;4974165;28;20113;-67
2021/11/17 04:06:11;;;;;;;56.92;20.00;;;;;;;6.25;100.00;101979.22;4973741;28;20364;-68
2021/11/17 04:09:12;;;;;;;63.30;20.88;;;;;;;6.23;100.00;101976.63;4974728;28;20058;-67
2021/11/17 04:11:53;;;;;;;58.83;21.85;;;;;;;6.25;100.00;101974.81;4974944;28;20114;-67
2021/11/17 04:14:43;;;;;;;57.03;20.52;;;;;;;6.32;100.00;101981.78;4974019;28;20066;-68
2021/11/17 04:17:17;;;;;;;60.63;20.73;;;;;;;6.35;100.00;101978.25;4974888;28;20505;-67
2021/11/17 04:20:10;;;;;;;59.95;21.25;;;;;;;6.38;100.00;101987.00;4973664;28;20089;-67
2021/11/17 04:23:09;;;;;;;60.20;20.83;;;;;;;6.46;100.00;101983.41;4974844;28;20035;-68
2021/11/17 04:25:59;;;;;;;65.85;23.20;;;;;;;6.45;100.00;101968.53;4973804;28;20058;-69
2021/11/17 04:28:30;;;;;;;62.15;21.92;;;;;;;6.49;100.00;101975.50;4974575;28;20027;-68
2021/11/17 04:31:45;;;;;;;65.83;22.63;;;;;;;6.48;100.00;101969.34;4973468;28;20068;-68
2021/11/17 04:34:39;;;;;;;57.97;21.33;;;;;;;6.50;100.00;101977.25;5026613;28;20539;-68
2021/11/17 04:37:06;;;;;;;60.65;22.90;;;;;;;6.52;100.00;101984.25;5032330;28;20064;-67
2021/11/17 04:39:53;;;;;;;68.82;23.98;;;;;;;6.56;100.00;101985.97;5013303;28;20386;-67
2021/11/17 04:42:56;;;;;;;66.50;22.95;;;;;;;6.62;100.00;101995.53;5032403;28;20112;-68
2021/11/17 04:45:30;;;;;;;;;;;;;;;6.62;100.00;101978.88;5012964;28;20038;-69
2021/11/17 04:48:13;;;;;;;68.30;23.42;;;;;;;6.61;100.00;101985.94;5012324;28;19979;-67
2021/11/17 04:51:10;;;;;;;64.65;22.35;;;;;;;6.64;100.00;101980.63;5013107;28;20121;-67
2021/11/17 04:53:48;;;;;;;69.50;24.17;;;;;;;6.68;100.00;101986.72;5013024;28;20485;-68
2021/11/17 04:56:48;;;;;;;72.90;23.50;;;;;;;6.68;100.00;101984.09;5012058;28;20029;-67
2021/11/17 04:59:13;;;;;;;65.93;23.35;;;;;;;6.71;100.00;101990.22;5012250;28;20057;-67
2021/11/17 05:01:45;;;;;;;68.50;23.38;;;;;;;6.75;100.00;101990.16;5012023;28;20449;-67
2021/11/17 05:04:10;;;;;;;66.47;23.50;;;;;;;6.77;100.00;101996.31;5013050;28;20497;-68
2021/11/17 05:07:09;;;;;;;74.15;25.15;;;;;;;6.74;100.00;101981.41;5011916;28;20093;-67
2021/11/17 05:09:47;;;;;;;73.75;25.65;;;;;;;6.81;100.00;101990.09;5012282;28;20034;-67
2021/11/17 05:12:22;;;;;;;74.38;25.00;;;;;;;6.80;100.00;101986.56;5089973;28;20081;-68
2021/11/17 05:15:13;;;;;;;70.35;25.55;;;;;;;6.84;100.00;101983.06;5091959;28;20051;-68
2021/11/17 05:18:06;;;;;;;66.80;25.23;;;;;;;6.86;100.00;101976.00;5093680;28;20030;-68
2021/11/17 05:21:03;;;;;;;76.22;26.38;;;;;;;6.86;100.00;101980.41;5093720;28;20031;-66
2021/11/17 05:23:49;;;;;;;73.22;24.58;;;;;;;6.91;100.00;101968.03;5053464;28;20064;-68
2021/11/17 05:26:35;;;;;;;76.30;25.15;;;;;;;6.92;100.00;101982.06;5053986;28;20476;-66
2021/11/17 05:29:09;;;;;;;81.22;28.90;;;;;;;6.96;100.00;101992.56;5053322;28;20083;-68
2021/11/17 05:32:04;;;;;;;76.78;26.73;;;;;;;7.03;100.00;101994.25;5057347;28;20080;-68
2021/11/17 05:35:20;;;;;;;74.00;26.50;;;;;;;7.03;100.00;101991.63;5055451;28;20094;-68
2021/11/17 05:38:07;;;;;;;68.75;25.42;;;;;;;7.05;100.00;101992.44;4973137;28;20043;-68
2021/11/17 05:40:50;;;;;;;75.60;26.70;;;;;;;7.08;100.00;101990.69;4968260;28;20499;-67
2021/11/17 05:43:48;;;;;;;73.63;26.10;;;;;;;7.11;100.00;101983.63;4971782;28;20035;-66
2021/11/17 05:46:19;;;;;;;70.13;26.15;;;;;;;7.19;100.00;101983.53;4933728;29;20040;-67
2021/11/17 05:49:09;;;;;;;68.65;25.85;;;;;;;7.23;100.00;101985.22;4941829;29;20170;-65
2021/11/17 05:52:09;;;;;;;64.82;24.70;;;;;;;7.26;100.00;101993.09;4933439;29;20359;-67
2021/11/17 05:54:43;;;;;;;72.55;27.95;;;;;;;7.27;100.00;102000.09;4948534;29;20205;-66
2021/11/17 05:57:44;;;;;;;70.90;26.33;;;;;;;7.28;100.00;101993.09;4941889;29;20043;-67
2021/11/17 06:00:22;;;;;;;74.45;26.08;;;;;;;7.30;100.00;101983.38;4897737;29;20032;-67
2021/11/17 06:03:12;;;;;;;80.43;28.60;;;;;;;7.33;100.00;101991.28;4932795;29;20035;-67
2021/11/17 06:05:37;;;;;;;74.55;26.70;;;;;;;7.37;100.00;101987.69;4934496;29;20032;-67
2021/11/17 06:08:02;;;;;;;68.63;26.20;;;;;;;7.40;100.00;101990.28;4933633;29;20032;-67
2021/11/17 06:10:30;;;;;;;68.87;26.03;;;;;;;7.44;100.00;101993.75;4933286;29;20311;-67
2021/11/17 06:12:57;;;;;;;71.40;26.27;;;;;;;7.45;100.00;101987.59;4953082;28;20349;-67
2021/11/17 06:15:22;;;;;;;65.00;24.63;;;;;;;7.50;100.00;101983.13;4979938;28;20093;-67
2021/11/17 06:17:51;;;;;;;72.15;26.60;;;;;;;7.52;100.00;101997.16;4971777;28;20113;-67
2021/11/17 06:20:18;;;;;;;70.57;25.63;;;;;;;7.52;100.00;101986.63;4971775;28;20037;-67
2021/11/17 06:22:49;;;;;;;71.00;26.50;;;;;;;7.50;100.00;101994.53;4995584;28;20041;-67
2021/11/17 06:25:16;;;;;;;68.53;24.50;;;;;;;7.52;100.00;101990.13;5059080;28;20031;-67
2021/11/17 06:27:45;;;;;;;73.47;26.23;;;;;;;7.54;100.00;101993.63;5073842;28;20027;-66
2021/11/17 06:30:17;;;;;;;76.35;25.73;;;;;;;7.54;100.00;101979.56;5072507;28;20032;-67
2021/11/17 06:32:43;;;;;;;77.85;27.52;;;;;;;7.61;100.00;101990.88;5071964;28;20079;-67
2021/11/17 06:35:10;;;;;;;71.57;26.77;;;;;;;7.63;100.00;101989.97;5072630;28;20452;-67
2021/11/17 06:37:36;;;;;;;81.57;27.45;;;;;;;7.65;100.00;102006.63;5089153;28;20025;-67
2021/11/17 06:40:05;;;;;;;79.13;27.75;;;;;;;7.74;100.00;102000.38;5078354;28;20032;-67
2021/11/17 06:42:44;;;;;;;80.53;29.30;;;;;;;7.76;100.00;102000.34;5058771;28;20026;-68
2021/11/17 06:45:14;;;;;;;72.25;26.13;;;;;;;7.78;100.00;102004.69;5066778;28;20059;-67
2021/11/17 06:47:40;;;;;;;74.85;26.75;;;;;;;7.75;100.00;102007.41;5057342;28;20071;-67
2021/11/17 06:50:06;;;;;;;78.88;29.17;;;;;;;7.74;100.00;102002.13;5070126;28;20052;-67
2021/11/17 06:52:31;;;;;;;81.72;29.05;;;;;;;7.76;100.00;102001.19;5056230;28;20055;-67
2021/11/17 06:54:57;;;;;;;79.60;28.33;;;;;;;7.78;100.00;102012.59;5056957;28;20029;-64
2021/11/17 06:57:22;;;;;;;84.18;29.35;;;;;;;7.82;100.00;102008.16;5059390;28;20436;-66
2021/11/17 06:59:48;;;;;;;82.07;28.52;;;;;;;7.81;100.00;102019.59;5059346;28;20025;-65
2021/11/17 07:02:14;;;;;;;77.20;27.48;;;;;;;7.85;100.00;102022.19;5074708;28;20024;-67
2021/11/17 07:04:39;;;;;;;85.43;28.60;;;;;;;7.82;100.00;102011.66;5053463;28;20516;-66
2021/11/17 07:07:07;;;;;;;81.85;27.92;;;;;;;7.81;100.00;102017.84;5065915;28;20178;-66
2021/11/17 07:09:33;;;;;;;86.65;29.65;;;;;;;7.80;100.00;102029.28;5059572;28;20472;-67
2021/11/17 07:11:58;;;;;;;80.18;28.05;;;;;;;7.86;100.00;102037.13;5065691;28;20029;-66
2021/11/17 07:14:23;;;;;;;88.32;29.15;;;;;;;7.84;100.00;102040.69;5052845;28;20047;-67
2021/11/17 07:16:51;;;;;;;83.65;29.50;;;;;;;7.82;100.00;102040.69;5052256;28;20075;-64
2021/11/17 07:19:23;;;;;;;96.35;31.42;;;;;;;7.82;100.00;102026.63;5052189;28;20047;-66
2021/11/17 07:21:54;;;;;;;97.57;30.10;;;;;;;7.82;100.00;102037.19;5068598;28;20032;-64
2021/11/17 07:24:20;;;;;;;84.40;28.13;;;;;;;7.85;100.00;102039.75;5059026;28;20057;-65
2021/11/17 07:26:46;;;;;;;95.03;30.67;;;;;;;7.85;100.00;102043.28;5072907;28;20078;-65
2021/11/17 07:29:11;;;;;;;98.20;30.75;;;;;;;7.86;100.00;102045.03;5062932;28;20025;-66
2021/11/17 07:31:36;;;;;;;95.15;29.77;;;;;;;7.88;100.00;102030.03;5060795;28;20396;-65
2021/11/17 07:34:02;;;;;;;94.88;29.15;;;;;;;7.92;100.00;102046.69;5068702;28;20039;-66
2021/11/17 07:36:29;;;;;;;86.85;28.27;;;;;;;7.98;100.00;102045.72;5067207;28;20476;-66
2021/11/17 07:38:54;;;;;;;90.70;29.05;;;;;;;7.95;100.00;102043.16;5067870;28;20082;-65
2021/11/17 07:41:19;;;;;;;87.28;27.58;;;;;;;7.95;100.00;102051.06;5075469;28;20025;-65
2021/11/17 07:43:45;;;;;;;92.70;28.13;;;;;;;7.99;100.00;102044.84;5063961;28;20104;-65
2021/11/17 07:46:11;;;;;;;100.05;29.60;;;;;;;8.00;100.00;102060.63;5070563;28;20056;-65
2021/11/17 07:48:36;;;;;;;91.47;29.13;;;;;;;8.00;100.00;102050.09;5067022;28;20029;-66
2021/11/17 07:51:02;;;;;;;99.85;28.80;;;;;;;8.03;100.00;102057.97;5060075;28;20036;-65
2021/11/17 07:53:32;;;;;;;94.40;28.92;;;;;;;8.04;100.00;102066.75;5066828;28;20527;-64
2021/11/17 07:56:00;;;;;;;90.18;28.35;;;;;;;8.09;100.00;102071.97;5062566;28;20044;-65
2021/11/17 07:58:30;;;;;;;87.70;27.48;;;;;;;8.16;100.00;102068.34;5069625;28;20477;-65
2021/11/17 08:00:59;;;;;;;88.20;28.15;;;;;;;8.18;100.00;102077.09;5071503;28;20043;-64
2021/11/17 08:03:27;;;;;;;91.20;27.98;;;;;;;8.24;100.00;102086.72;5067580;28;20024;-67
2021/11/17 08:05:54;;;;;;;96.20;30.38;;;;;;;8.34;100.00;102094.44;5071292;28;20036;-65
2021/11/17 08:08:22;;;;;;;91.70;29.70;;;;;;;8.36;100.00;102089.13;5074363;28;20101;-67
2021/11/17 08:10:48;;;;;;;92.38;28.17;;;;;;;8.40;100.00;102085.59;5074027;28;20021;-67
2021/11/17 08:13:14;;;;;;;98.07;30.17;;;;;;;8.39;100.00;102081.19;5074379;28;20032;-69
2021/11/17 08:15:40;;;;;;;92.35;28.73;;;;;;;8.42;100.00;102086.41;5073501;28;20106;-69
2021/11/17 08:18:06;;;;;;;81.00;27.38;;;;;;;8.45;100.00;102089.03;5075127;28;20021;-67
2021/11/17 08:20:32;;;;;;;85.68;26.25;;;;;;;8.45;100.00;102090.78;5068627;28;20033;-67
2021/11/17 08:22:58;;;;;;;77.03;26.20;;;;;;;8.44;100.00;102089.00;5062096;28;20021;-64
2021/11/17 08:25:26;;;;;;;85.13;27.60;;;;;;;8.45;100.00;102091.66;5072721;28;20465;-67
2021/11/17 08:27:52;;;;;;;92.65;28.13;;;;;;;8.45;100.00;102094.28;5067334;28;20032;-64
2021/11/17 08:30:20;;;;;;;90.65;27.48;;;;;;;8.41;100.00;102089.94;5065206;28;20020;-64
2021/11/17 08:32:45;;;;;;;98.65;30.67;;;;;;;8.43;100.00;102108.41;5068564;28;20056;-65
2021/11/17 08:35:15;;;;;;;86.70;28.35;;;;;;;8.43;100.00;102098.72;5073428;28;20039;-68
2021/11/17 08:37:41;;;;;;;86.05;26.88;;;;;;;8.47;100.00;102096.94;5074169;28;20112;-66
2021/11/17 08:40:17;;;;;;;85.18;27.67;;;;;;;8.49;100.00;102100.41;5072655;28;20099;-66
2021/11/17 08:42:42;;;;;;;76.03;26.30;;;;;;;8.55;100.00;102088.91;5068826;28;20024;-66
2021/11/17 08:45:10;;;;;;;82.95;27.70;;;;;;;8.53;100.00;102099.50;5073766;28;20020;-69
2021/11/17 08:47:36;;;;;;;80.28;26.27;;;;;;;8.54;100.00;102103.84;5074258;28;20028;-64
2021/11/17 08:50:04;;;;;;;83.40;27.52;;;;;;;8.54;100.00;102111.75;5073412;28;20037;-64
2021/11/17 08:52:29;;;;;;;89.15;27.00;;;;;;;8.56;100.00;102119.69;5073730;28;20396;-68
2021/11/17 08:54:55;;;;;;;83.00;27.52;;;;;;;8.58;100.00;102118.78;5073598;28;20045;-66
2021/11/17 08:57:20;;;;;;;68.82;24.83;;;;;;;8.60;100.00;102119.59;5073917;28;20033;-66
2021/11/17 08:59:51;;;;;;;81.28;26.02;;;;;;;8.65;100.00;102119.53;5076702;28;20028;-66
2021/11/17 09:02:16;;;;;;;83.50;27.50;;;;;;;8.65;100.00;102123.03;5074742;28;20032;-68
2021/11/17 09:04:43;;;;;;;81.93;26.27;;;;;;;8.77;100.00;102121.09;5091689;28;20039;-66
2021/11/17 09:07:09;;;;;;;82.53;28.60;;;;;;;8.82;100.00;102119.25;5094100;28;20052;-66
2021/11/17 09:09:34;;;;;;;85.80;27.38;;;;;;;8.90;100.00;102120.00;5093620;28;20066;-67
2021/11/17 09:12:00;;;;;;;77.32;27.52;;;;;;;9.01;100.00;102133.00;5075370;28;20387;-66
2021/11/17 09:14:26;;;;;;;79.03;26.75;;;;;;;9.11;100.00;102126.66;5073771;28;20483;-66
2021/11/17 09:16:51;;;;;;;70.15;26.33;;;;;;;9.22;100.00;102125.59;5079606;28;20027;-67
2021/11/17 09:19:17;;;;;;;76.22;25.63;;;;;;;9.39;100.00;102128.78;5073568;28;20495;-66
2021/11/17 09:21:45;;;;;;;69.03;25.00;;;;;;;9.51;100.00;102130.31;5073339;28;20507;-65
2021/11/17 09:24:14;;;;;;;63.03;24.13;;;;;;;9.67;100.00;102137.06;5074373;28;20025;-66
2021/11/17 09:26:40;;;;;;;57.67;22.67;;;;;;;9.81;100.00;102142.06;5074994;28;20024;-65
2021/11/17 09:29:06;;;;;;;52.08;21.33;;;;;;;9.90;100.00;102135.72;5084968;28;20476;-65
2021/11/17 09:31:39;;;;;;;55.88;20.58;;;;;;;9.95;100.00;102140.91;5089603;28;20102;-67
2021/11/17 09:34:07;;;;;;;47.15;19.77;;;;;;;10.06;100.00;102146.81;5091986;28;20131;-66
2021/11/17 09:36:34;;;;;;;45.85;19.05;;;;;;;10.14;100.00;102151.94;5086930;28;20032;-69
2021/11/17 09:39:00;;;;;;;34.88;14.68;;;;;;;10.23;100.00;102142.94;5053624;28;20025;-66
2021/11/17 09:41:29;;;;;;;31.25;14.18;;;;;;;10.28;100.00;102141.94;5065919;28;20032;-66
2021/11/17 09:44:04;;;;;;;28.60;12.93;;;;;;;10.33;100.00;102158.59;5073000;28;20033;-67
2021/11/17 09:46:35;;;;;;;29.00;11.82;;;;;;;10.37;100.00;102154.16;5082188;28;20028;-66
2021/11/17 09:49:13;;;;;;;24.65;11.07;;;;;;;10.37;100.00;102156.78;5072077;28;20039;-67
2021/11/17 09:51:49;;;;;;;20.80;8.88;;;;;;;10.42;100.00;102160.19;5072542;28;20104;-66
2021/11/17 09:54:19;;;;;;;18.95;8.10;;;;;;;10.48;100.00;102165.34;5082887;28;20127;-67
2021/11/17 09:57:22;;;;;;;19.17;5.78;;;;;;;10.50;99.36;102170.63;5092931;28;20107;-67
2021/11/17 09:59:58;;;;;;;13.23;4.53;;;;;;;10.71;98.96;102176.31;4953530;28;20400;-67
2021/11/17 10:02:33;;;;;;;11.60;4.28;;;;;;;10.84;98.14;102169.78;4952761;29;20035;-66
2021/11/17 10:05:09;;;;;;;14.27;3.70;;;;;;;11.01;96.32;102181.75;4964318;28;20077;-67
2021/11/17 10:11:15;;;;;;;12.95;3.40;;;;;;;11.20;94.54;102180.41;4971702;28;20049;-67
2021/11/17 10:13:58;;;;;;;12.75;3.67;;;;;;;11.26;92.72;102174.91;4971754;28;20042;-68
2021/11/17 10:16:25;;;;;;;15.88;3.63;;;;;;;11.35;91.73;102183.56;4972540;28;20121;-69
2021/11/17 10:19:11;;;;;;;11.57;3.50;;;;;;;12.04;93.53;102172.81;4971446;28;20554;-66
2021/11/17 10:21:37;;;;;;;13.02;3.50;;;;;;;12.98;85.43;102171.63;4952413;28;20076;-67
2021/11/17 10:24:03;;;;;;;16.25;3.58;;;;;;;13.51;83.25;102184.91;4952304;29;20031;-67
2021/11/17 10:26:29;;;;;;;16.07;3.00;;;;;;;13.88;78.26;102188.03;4965669;28;20058;-67
2021/11/17 10:29:07;;;;;;;14.35;2.88;;;;;;;14.24;75.61;102184.88;4971930;28;20297;-65
2021/11/17 10:31:53;;;;;;;16.20;3.60;;;;;;;15.07;70.49;102196.69;4969210;28;20042;-66
2021/11/17 10:34:28;;;;;;;18.70;3.55;;;;;;;15.71;66.83;102201.03;4971678;28;20034;-66
2021/11/17 10:37:31;;;;;;;11.38;3.10;;;;;;;16.12;65.54;102205.44;5033318;28;20571;-66
2021/11/17 10:39:58;;;;;;;14.70;2.90;;;;;;;16.41;66.66;102200.56;4990580;28;20136;-66
2021/11/17 10:42:36;;;;;;;15.88;3.85;;;;;;;16.78;63.34;102201.44;4989196;28;20023;-67
2021/11/17 10:45:24;;;;;;;18.45;4.00;;;;;;;16.84;59.62;102200.25;5002119;28;20140;-65
2021/11/17 10:47:51;;;;;;;14.25;3.17;;;;;;;16.96;61.47;102212.22;5021638;28;20029;-67
2021/11/17 10:50:25;;;;;;;15.43;3.30;;;;;;;16.71;60.25;102205.34;5030081;28;20444;-69
2021/11/17 10:53:14;;;;;;;14.77;3.45;;;;;;;17.34;59.09;102202.22;4998985;28;20126;-67
2021/11/17 10:55:44;;;;;;;14.95;3.20;;;;;;;17.88;56.36;102200.31;4990770;28;20045;-66
2021/11/17 10:58:31;;;;;;;15.98;3.67;;;;;;;18.04;52.65;102197.72;5002127;28;20089;-67
2021/11/17 11:01:01;;;;;;;15.98;3.05;;;;;;;18.39;54.79;102205.59;5012778;28;20026;-68
2021/11/17 11:03:38;;;;;;;16.50;3.97;;;;;;;18.96;51.19;102205.94;5013649;28;20112;-67
2021/11/17 11:06:21;;;;;;;13.77;3.30;;;;;;;18.71;50.22;102214.50;5013843;28;20030;-67
2021/11/17 11:09:03;;;;;;;18.55;3.90;;;;;;;18.21;50.89;102210.16;5015007;28;20022;-67
2021/11/17 11:11:30;;;;;;;17.13;3.45;;;;;;;17.76;51.43;102208.09;5013761;28;20018;-68
2021/11/17 11:14:20;;;;;;;13.45;3.33;;;;;;;17.25;53.95;102213.41;5001694;28;20030;-67
2021/11/17 11:16:53;;;;;;;17.45;3.47;;;;;;;16.60;55.83;102210.34;5035307;28;20063;-67
2021/11/17 11:19:21;;;;;;;17.67;3.50;;;;;;;16.48;56.11;102210.03;5066194;28;20020;-67
2021/11/17 11:21:46;;;;;;;18.10;3.75;;;;;;;16.61;57.90;102217.44;5075512;28;20507;-67
2021/11/17 11:24:26;;;;;;;14.27;3.33;;;;;;;16.36;55.78;102211.44;5065932;28;20029;-66
2021/11/17 11:26:57;;;;;;;15.25;3.45;;;;;;;16.16;55.52;102206.19;5055564;28;20275;-67
2021/11/17 11:29:29;;;;;;;16.48;3.42;;;;;;;15.97;57.30;102196.38;5061060;28;20504;-69
2021/11/17 11:31:55;;;;;;;14.77;4.00;;;;;;;15.57;57.72;102200.78;5075379;28;20045;-66
2021/11/17 11:35:06;;;;;;;19.13;3.60;;;;;;;14.76;60.23;102205.97;5070693;28;20037;-67
2021/11/17 11:37:52;;;;;;;14.80;3.08;;;;;;;13.75;63.98;102208.91;5055138;28;20025;-68
2021/11/17 11:40:17;;;;;;;13.77;2.97;;;;;;;13.23;66.25;102215.09;5066623;28;20028;-68
2021/11/17 11:42:58;;;;;;;14.32;3.35;;;;;;;13.35;68.69;102215.59;5095363;28;20051;-65
2021/11/17 11:45:26;;;;;;;14.38;3.05;;;;;;;13.51;68.52;102230.13;5080871;28;20032;-67
2021/11/17 11:48:06;;;;;;;14.52;3.10;;;;;;;13.24;68.04;102223.97;5054871;28;20021;-68
2021/11/17 11:50:32;;;;;;;16.58;3.30;;;;;;;12.69;70.62;102238.13;5059494;28;20039;-68
2021/11/17 11:53:09;;;;;;;17.83;3.22;;;;;;;12.43;71.39;102233.63;5075131;28;20036;-68
2021/11/17 11:55:49;;;;;;;12.70;2.85;;;;;;;12.60;71.55;102219.81;5072618;28;20024;-66
2021/11/17 11:58:20;;;;;;;11.27;2.97;;;;;;;12.93;71.21;102230.31;5055069;28;20423;-68
2021/11/17 12:00:59;;;;;;;13.25;2.83;;;;;;;12.74;70.30;102225.56;5054759;28;20503;-66
2021/11/17 12:03:28;;;;;;;13.48;3.05;;;;;;;12.87;70.26;102228.69;5054611;28;20106;-67
2021/11/17 12:06:18;;;;;;;13.68;2.90;;;;;;;12.61;70.28;102227.72;5054969;28;20461;-67
2021/11/17 12:08:52;;;;;;;11.57;2.65;;;;;;;12.59;71.75;102245.50;5055137;28;20029;-67
2021/11/17 12:11:29;;;;;;;15.27;3.35;;;;;;;12.45;73.15;102239.75;5054567;28;20108;-66
2021/11/17 12:14:02;;;;;;;17.08;3.03;;;;;;;12.46;72.66;102246.81;5092453;28;20499;-67
2021/11/17 12:16:34;;;;;;;13.32;2.70;;;;;;;12.44;73.92;102248.63;5094775;28;20475;-67
2021/11/17 12:19:05;;;;;;;;;;;;;;;12.88;72.29;102251.72;5056785;28;20025;-66
2021/11/17 12:21:38;;;;;;;16.27;3.00;;;;;;;13.12;70.79;102249.19;5061224;28;19916;-67
2021/11/17 12:24:04;;;;;;;16.33;3.05;;;;;;;12.92;70.84;102252.47;5075448;28;20032;-67
2021/11/17 12:26:29;;;;;;;13.00;3.13;;;;;;;13.29;70.34;102253.94;5074411;28;20020;-68
2021/11/17 12:29:03;;;;;;;11.65;3.00;;;;;;;13.51;68.09;102261.22;5062576;28;20288;-67
2021/11/17 12:32:07;;;;;;;18.20;3.80;;;;;;;13.10;70.19;102262.50;5054097;28;20067;-66
2021/11/17 12:34:38;;;;;;;14.30;2.80;;;;;;;13.16;69.90;102263.22;5069960;28;20024;-66
2021/11/17 12:37:10;;;;;;;13.68;2.70;;;;;;;13.13;68.83;102266.00;5074342;28;20028;-67
2021/11/17 12:40:07;;;;;;;16.33;3.20;;;;;;;12.81;70.56;102267.91;5072797;28;20021;-68
2021/11/17 12:42:38;;;;;;;18.35;3.35;;;;;;;12.53;70.42;102271.41;5066054;28;20469;-67
2021/11/17 12:45:26;;;;;;;12.40;2.75;;;;;;;12.25;71.83;102269.56;5068425;28;20103;-67
2021/11/17 12:48:11;;;;;;;16.20;3.30;;;;;;;12.17;73.15;102260.94;5073862;28;20534;-68
2021/11/17 12:51:00;;;;;;;15.13;3.13;;;;;;;12.00;73.47;102262.28;5059756;28;20040;-68
2021/11/17 12:53:32;;;;;;;14.05;3.22;;;;;;;11.83;74.05;102275.13;5054133;28;20029;-67
2021/11/17 12:56:04;;;;;;;15.52;3.03;;;;;;;11.62;75.31;102264.16;5070431;28;20039;-68
2021/11/17 12:58:49;;;;;;;15.40;2.88;;;;;;;11.47;75.42;102268.09;5073682;28;20119;-67
2021/11/17 13:01:33;;;;;;;15.40;3.17;;;;;;;11.55;75.97;102273.22;5059513;28;20025;-67
2021/11/17 13:04:21;;;;;;;14.68;3.15;;;;;;;11.56;75.81;102267.88;5053807;28;20031;-68
2021/11/17 13:06:53;;;;;;;15.10;2.55;;;;;;;11.74;74.55;102282.44;5060279;28;20050;-68
2021/11/17 13:09:23;;;;;;;20.33;3.67;;;;;;;12.13;73.21;102282.28;5065119;28;20029;-67
2021/11/17 13:12:03;;;;;;;18.77;3.42;;;;;;;12.16;71.45;102285.75;5053454;28;20044;-67
2021/11/17 13:14:33;;;;;;;18.10;3.58;;;;;;;12.13;71.00;102284.06;5053697;28;20033;-67
2021/11/17 13:17:04;;;;;;;18.27;2.97;;;;;;;12.02;70.13;102291.44;5067393;28;20419;-67
2021/11/17 13:19:41;;;;;;;14.43;2.90;;;;;;;11.78;70.66;102289.41;5070098;28;20092;-67
2021/11/17 13:22:59;;;;;;;18.38;2.92;;;;;;;11.45;71.82;102302.63;5052684;28;20037;-67
2021/11/17 13:25:26;;;;;;;13.95;3.17;;;;;;;11.21;72.21;102293.47;4965512;28;20347;-67
2021/11/17 13:27:53;;;;;;;16.25;3.08;;;;;;;11.07;73.40;102290.28;4992808;28;20121;-67
2021/11/17 13:30:32;;;;;;;10.88;2.90;;;;;;;11.01;73.21;102293.09;4991053;28;20034;-69
2021/11/17 13:33:15;;;;;;;13.27;2.53;;;;;;;11.26;72.78;102277.47;4992698;28;20706;-70
2021/11/17 13:35:41;;;;;;;20.13;3.17;;;;;;;11.40;71.87;102282.44;4998084;28;20033;-66
2021/11/17 13:38:22;;;;;;;10.75;2.80;;;;;;;11.74;71.63;102279.78;4991745;28;20505;-67
2021/11/17 13:40:51;;;;;;;16.20;3.50;;;;;;;12.25;69.64;102289.03;4991125;28;20080;-67
2021/11/17 13:43:17;;;;;;;18.15;3.53;;;;;;;12.66;68.51;102290.50;4991537;28;20030;-68
2021/11/17 13:45:46;;;;;;;14.25;2.83;;;;;;;12.77;66.43;102285.72;4989919;28;20045;-65
2021/11/17 13:48:14;;;;;;;16.60;3.13;;;;;;;12.73;65.63;102286.75;4975756;28;20072;-67
2021/11/17 13:50:41;;;;;;;15.20;3.00;;;;;;;12.78;66.25;102296.31;4977354;28;20122;-67
2021/11/17 13:53:08;;;;;;;11.90;3.33;;;;;;;12.90;65.51;102287.09;4987595;28;20049;-68
2021/11/17 13:55:37;;;;;;;16.23;3.42;;;;;;;12.95;66.13;102285.16;4977678;28;20165;-69
2021/11/17 13:58:05;;;;;;;16.08;2.70;;;;;;;12.82;64.84;102290.91;4990132;28;20120;-67
2021/11/17 14:00:30;;;;;;;13.55;3.10;;;;;;;12.53;66.39;102290.00;5035621;28;20046;-67
2021/11/17 14:02:58;;;;;;;14.48;3.25;;;;;;;12.67;65.42;102298.41;5076792;28;20032;-66
2021/11/17 14:05:23;;;;;;;18.55;3.30;;;;;;;12.47;65.91;102296.38;5075084;28;20078;-67
2021/11/17 14:07:49;;;;;;;16.50;3.33;;;;;;;12.40;67.05;102316.06;5070084;28;20024;-67
2021/11/17 14:10:17;;;;;;;16.25;3.13;;;;;;;12.13;67.84;102302.66;5077110;28;20508;-67
2021/11/17 14:12:43;;;;;;;13.88;2.80;;;;;;;11.86;69.17;102304.25;5076737;28;20500;-67
2021/11/17 14:15:09;;;;;;;20.95;2.83;;;;;;;11.68;70.73;102314.44;5068222;28;20036;-68
2021/11/17 14:17:35;;;;;;;16.10;3.40;;;;;;;11.58;71.57;102319.09;5048543;28;20388;-68
2021/11/17 14:20:01;;;;;;;18.05;3.17;;;;;;;11.64;71.43;102323.38;5053495;28;20092;-68